createdAt,value
2023-03-19T00:02:17.148Z,11.37
2023-03-19T00:04:46.172Z,11.33
2023-03-19T00:07:14.490Z,11.33
2023-03-19T00:09:42.225Z,11.33
2023-03-19T00:12:10.950Z,11.38
2023-03-19T00:14:38.611Z,11.47
2023-03-19T00:17:07.941Z,11.49
2023-03-19T00:19:35.611Z,11.42
2023-03-19T00:22:03.174Z,11.40
2023-03-19T00:24:30.933Z,11.33
2023-03-19T00:26:58.670Z,11.31
2023-03-19T00:29:26.339Z,11.34
2023-03-19T00:31:53.841Z,11.35
2023-03-19T00:34:23.031Z,11.34
2023-03-19T00:36:50.650Z,11.37
2023-03-19T00:39:18.249Z,11.41
2023-03-19T00:41:50.512Z,11.43
2023-03-19T00:44:18.937Z,11.44
2023-03-19T00:46:46.895Z,11.46
2023-03-19T00:49:14.571Z,11.45
2023-03-19T00:51:44.112Z,11.44
2023-03-19T00:54:12.867Z,11.47
2023-03-19T00:56:40.411Z,11.48
2023-03-19T00:59:08.121Z,11.50
2023-03-19T01:01:35.745Z,11.54
2023-03-19T01:04:03.700Z,11.61
2023-03-19T01:06:31.287Z,11.64
2023-03-19T01:09:00.522Z,11.61
2023-03-19T01:11:28.090Z,11.61
2023-03-19T01:13:55.631Z,11.63
2023-03-19T01:16:23.165Z,11.69
2023-03-19T01:18:50.877Z,11.73
2023-03-19T01:21:18.584Z,11.72
2023-03-19T01:23:46.251Z,11.71
2023-03-19T01:26:15.171Z,11.71
2023-03-19T01:28:43.379Z,11.75
2023-03-19T01:31:11.673Z,11.78
2023-03-19T01:33:39.358Z,11.78
2023-03-19T01:36:08.754Z,11.75
2023-03-19T01:38:36.666Z,11.71
2023-03-19T01:41:04.262Z,11.64
2023-03-19T01:43:33.679Z,11.58
2023-03-19T01:46:06.165Z,11.49
2023-03-19T01:48:40.255Z,11.46
2023-03-19T01:51:11.130Z,11.39
2023-03-19T01:53:42.684Z,11.34
2023-03-19T01:56:13.501Z,11.39
2023-03-19T01:58:45.112Z,11.38
2023-03-19T02:01:12.681Z,11.34
2023-03-19T02:03:41.386Z,11.39
2023-03-19T02:06:11.296Z,11.48
2023-03-19T02:08:40.076Z,11.51
2023-03-19T02:11:07.982Z,11.46
2023-03-19T02:13:36.565Z,11.44
2023-03-19T02:16:06.028Z,11.44
2023-03-19T02:18:33.654Z,11.45
2023-03-19T02:21:06.815Z,11.47
2023-03-19T02:23:40.798Z,11.43
2023-03-19T02:26:12.732Z,11.43
2023-03-19T02:28:43.957Z,11.36
2023-03-19T02:31:12.108Z,11.33
2023-03-19T02:33:40.075Z,11.29
2023-03-19T02:36:12.794Z,11.35
2023-03-19T02:38:41.880Z,11.40
2023-03-19T02:41:11.331Z,11.44
2023-03-19T02:43:40.874Z,11.46
2023-03-19T02:46:12.909Z,11.44
2023-03-19T02:48:41.289Z,11.39
2023-03-19T02:51:09.042Z,11.42
2023-03-19T02:53:36.786Z,11.46
2023-03-19T02:56:04.312Z,11.50
2023-03-19T02:58:33.153Z,11.52
2023-03-19T03:01:00.677Z,11.53
2023-03-19T03:03:28.566Z,11.49
2023-03-19T03:05:56.372Z,11.46
2023-03-19T03:08:23.912Z,11.48
2023-03-19T03:10:51.434Z,11.48
2023-03-19T03:13:18.917Z,11.43
2023-03-19T03:15:47.825Z,11.37
2023-03-19T03:18:15.342Z,11.31
2023-03-19T03:20:43.297Z,11.25
2023-03-19T03:23:11.422Z,11.21
2023-03-19T03:25:38.922Z,11.20
2023-03-19T03:28:06.884Z,11.21
2023-03-19T03:30:34.667Z,11.23
2023-03-19T03:33:03.864Z,11.19
2023-03-19T03:35:31.541Z,11.18
2023-03-19T03:37:59.135Z,11.10
2023-03-19T03:40:27.331Z,11.05
2023-03-19T03:42:54.948Z,11.01
2023-03-19T03:45:22.463Z,11.04
2023-03-19T03:47:50.991Z,11.09
2023-03-19T03:50:19.940Z,11.12
2023-03-19T03:52:47.913Z,11.20
2023-03-19T03:55:15.616Z,11.23
2023-03-19T03:57:43.415Z,11.26
2023-03-19T04:00:12.568Z,11.31
2023-03-19T04:02:40.322Z,11.33
2023-03-19T04:05:08.551Z,11.30
2023-03-19T04:07:38.311Z,11.28
2023-03-19T04:10:07.562Z,11.26
2023-03-19T04:12:35.299Z,11.27
2023-03-19T04:15:02.886Z,11.24
2023-03-19T04:17:30.430Z,11.23
2023-03-19T04:19:57.956Z,11.23
2023-03-19T04:22:25.482Z,11.21
2023-03-19T04:24:54.343Z,11.20
2023-03-19T04:27:22.043Z,11.21
2023-03-19T04:29:49.604Z,11.20
2023-03-19T04:32:17.103Z,11.23
2023-03-19T04:34:44.653Z,11.30
2023-03-19T04:37:12.519Z,11.28
2023-03-19T04:39:40.127Z,11.31
2023-03-19T04:42:09.221Z,11.33
2023-03-19T04:44:37.651Z,11.34
2023-03-19T04:47:05.804Z,11.30
2023-03-19T04:49:33.324Z,11.24
2023-03-19T04:52:00.843Z,11.23
2023-03-19T04:54:28.408Z,11.24
2023-03-19T04:56:56.052Z,11.26
2023-03-19T04:59:24.898Z,11.28
2023-03-19T05:01:52.410Z,11.27
2023-03-19T05:04:20.063Z,11.26
2023-03-19T05:06:47.596Z,11.25
2023-03-19T05:09:15.094Z,11.24
2023-03-19T05:11:42.586Z,11.26
2023-03-19T05:14:10.080Z,11.30
2023-03-19T05:16:38.907Z,11.31
2023-03-19T05:19:06.614Z,11.34
2023-03-19T05:21:34.153Z,11.37
2023-03-19T05:24:01.624Z,11.39
2023-03-19T05:26:29.131Z,11.42
2023-03-19T05:28:56.718Z,11.48
2023-03-19T05:31:24.572Z,11.52
2023-03-19T05:33:53.460Z,11.53
2023-03-19T05:36:21.001Z,11.50
2023-03-19T05:38:48.519Z,11.48
2023-03-19T05:41:16.116Z,11.48
2023-03-19T05:43:43.665Z,11.45
2023-03-19T05:46:11.491Z,11.37
2023-03-19T05:48:39.001Z,11.28
2023-03-19T05:51:08.758Z,11.16
2023-03-19T05:53:36.262Z,11.05
2023-03-19T05:56:03.792Z,10.87
2023-03-19T05:58:31.363Z,10.70
2023-03-19T06:00:59.118Z,10.59
2023-03-19T06:03:27.172Z,10.51
2023-03-19T06:05:54.948Z,10.46
2023-03-19T06:08:23.792Z,10.40
2023-03-19T06:10:51.959Z,10.36
2023-03-19T06:13:19.486Z,10.27
2023-03-19T06:15:49.127Z,10.18
2023-03-19T06:18:16.905Z,10.12
2023-03-19T06:20:44.987Z,10.09
2023-03-19T06:23:14.542Z,10.06
2023-03-19T06:25:45.133Z,10.04
2023-03-19T06:28:12.646Z,10.03
2023-03-19T06:30:40.166Z,10.04
2023-03-19T06:33:07.923Z,10.09
2023-03-19T06:35:35.688Z,10.14
2023-03-19T06:38:03.267Z,10.23
2023-03-19T06:40:30.775Z,10.29
2023-03-19T06:43:00.367Z,10.37
2023-03-19T06:45:27.980Z,10.44
2023-03-19T06:47:56.028Z,10.49
2023-03-19T06:50:23.975Z,10.54
2023-03-19T06:52:52.008Z,10.62
2023-03-19T06:55:20.464Z,10.67
2023-03-19T06:57:49.957Z,10.72
2023-03-19T07:00:20.747Z,10.74
2023-03-19T07:02:48.365Z,10.74
2023-03-19T07:05:16.378Z,10.73
2023-03-19T07:07:43.991Z,10.72
2023-03-19T07:10:12.546Z,10.71
2023-03-19T07:12:40.073Z,10.71
2023-03-19T07:15:08.900Z,10.69
2023-03-19T07:17:37.769Z,10.70
2023-03-19T07:20:06.433Z,10.66
2023-03-19T07:22:33.975Z,10.62
2023-03-19T07:25:01.443Z,10.57
2023-03-19T07:27:28.927Z,10.53
2023-03-19T07:29:56.524Z,10.49
2023-03-19T07:32:24.335Z,10.50
2023-03-19T07:34:53.197Z,10.48
2023-03-19T07:37:22.520Z,10.46
2023-03-19T07:39:50.868Z,10.46
2023-03-19T07:42:18.376Z,10.43
2023-03-19T07:44:45.977Z,10.41
2023-03-19T07:47:28.025Z,10.39
2023-03-19T07:49:58.154Z,10.39
2023-03-19T07:52:25.999Z,10.42
2023-03-19T07:54:53.895Z,10.43
2023-03-19T07:57:21.738Z,10.41
2023-03-19T07:59:49.240Z,10.40
2023-03-19T08:02:20.363Z,10.41
2023-03-19T08:04:49.211Z,10.41
2023-03-19T08:07:18.235Z,10.42
2023-03-19T08:09:45.735Z,10.51
2023-03-19T08:12:14.252Z,10.62
2023-03-19T08:14:41.754Z,10.71
2023-03-19T08:17:09.533Z,10.80
2023-03-19T08:19:37.137Z,10.89
2023-03-19T08:22:04.769Z,10.97
2023-03-19T08:24:33.639Z,11.05
2023-03-19T08:27:01.345Z,11.14
2023-03-19T08:29:29.437Z,11.14
2023-03-19T08:31:58.673Z,11.20
2023-03-19T08:34:26.958Z,11.28
2023-03-19T08:36:54.517Z,11.30
2023-03-19T08:39:22.045Z,11.31
2023-03-19T08:41:51.347Z,11.34
2023-03-19T08:44:18.863Z,11.38
2023-03-19T08:46:46.346Z,11.42
2023-03-19T08:49:13.840Z,11.48
2023-03-19T08:51:41.354Z,11.55
2023-03-19T08:54:09.471Z,11.63
2023-03-19T08:56:36.989Z,11.69
2023-03-19T08:59:06.181Z,11.68
2023-03-19T09:01:33.992Z,11.70
2023-03-19T09:04:02.191Z,11.68
2023-03-19T09:06:29.734Z,11.68
2023-03-19T09:08:57.255Z,11.71
2023-03-19T09:11:24.846Z,11.73
2023-03-19T09:13:52.407Z,11.76
2023-03-19T09:16:21.418Z,11.84
2023-03-19T09:18:49.000Z,11.90
2023-03-19T09:21:16.576Z,11.97
2023-03-19T09:23:44.434Z,12.05
2023-03-19T09:26:12.039Z,12.07
2023-03-19T09:28:39.656Z,12.11
2023-03-19T09:31:11.601Z,12.13
2023-03-19T09:33:40.712Z,12.18
2023-03-19T09:36:09.184Z,12.24
2023-03-19T09:38:36.752Z,12.32
2023-03-19T09:41:10.739Z,12.41
2023-03-19T09:44:01.384Z,12.48
2023-03-19T09:46:37.557Z,12.50
2023-03-19T09:49:17.645Z,12.57
2023-03-19T09:51:51.313Z,12.64
2023-03-19T09:54:31.899Z,12.78
2023-03-19T09:56:59.743Z,12.89
2023-03-19T09:59:29.138Z,13.07
2023-03-19T10:02:04.999Z,13.27
2023-03-19T10:04:44.937Z,13.52
2023-03-19T10:07:35.919Z,13.85
2023-03-19T10:10:18.129Z,14.12
2023-03-19T10:12:55.085Z,14.39
2023-03-19T10:15:28.964Z,14.77
2023-03-19T10:18:02.131Z,15.18
2023-03-19T10:20:39.270Z,15.63
2023-03-19T10:23:25.186Z,16.00
2023-03-19T10:25:56.777Z,16.25
2023-03-19T10:28:24.761Z,16.46
2023-03-19T10:31:02.476Z,16.66
2023-03-19T10:33:42.652Z,16.76
2023-03-19T10:36:15.682Z,16.77
2023-03-19T10:38:44.786Z,17.02
2023-03-19T10:41:25.583Z,17.46
2023-03-19T10:43:56.087Z,17.97
2023-03-19T10:46:23.739Z,18.44
2023-03-19T10:59:37.275Z,20.29
2023-03-19T11:02:17.960Z,20.76
2023-03-19T11:04:46.489Z,21.07
2023-03-19T11:07:16.133Z,21.50
2023-03-19T11:09:47.260Z,21.73
2023-03-19T11:12:20.608Z,21.88
2023-03-19T11:14:52.127Z,22.09
2023-03-19T11:17:24.563Z,22.08
2023-03-19T11:19:53.986Z,21.96
2023-03-19T11:22:24.109Z,21.70
2023-03-19T11:24:54.283Z,21.44
2023-03-19T11:27:29.681Z,21.51
2023-03-19T11:29:59.062Z,21.81
2023-03-19T11:33:05.584Z,21.95
2023-03-19T11:35:38.462Z,21.95
2023-03-19T11:38:18.514Z,22.12
2023-03-19T11:40:52.991Z,22.16
2023-03-19T11:43:38.291Z,22.15
2023-03-19T11:46:18.319Z,22.14
2023-03-19T11:49:04.994Z,21.96
2023-03-19T11:51:42.832Z,21.92
2023-03-19T11:54:21.672Z,21.91
2023-03-19T11:56:51.251Z,21.65
2023-03-19T11:59:45.072Z,21.35
2023-03-19T12:03:09.650Z,21.39
2023-03-19T12:05:50.303Z,21.55
2023-03-19T12:08:32.383Z,21.78
2023-03-19T12:11:11.195Z,22.03
2023-03-19T12:13:51.745Z,22.01
2023-03-19T12:16:30.417Z,21.76
2023-03-19T12:19:28.535Z,21.55
2023-03-19T12:22:10.015Z,21.39
2023-03-19T12:24:54.828Z,21.31
2023-03-19T12:27:34.355Z,21.37
2023-03-19T12:30:05.042Z,21.35
2023-03-19T12:32:46.331Z,21.29
2023-03-19T12:35:19.721Z,21.15
2023-03-19T12:37:59.462Z,20.99
2023-03-19T12:40:30.842Z,20.84
2023-03-19T12:43:00.913Z,20.70
2023-03-19T12:45:33.524Z,20.54
2023-03-19T12:48:08.428Z,20.46
2023-03-19T12:50:40.902Z,20.32
2023-03-19T12:53:15.577Z,20.19
2023-03-19T12:55:49.464Z,19.99
2023-03-19T12:58:22.931Z,19.87
2023-03-19T13:00:54.278Z,19.78
2023-03-19T13:03:26.466Z,19.60
2023-03-19T13:06:02.675Z,19.43
2023-03-19T13:08:36.268Z,19.38
2023-03-19T13:11:09.763Z,19.30
2023-03-19T13:13:43.681Z,19.19
2023-03-19T13:16:22.989Z,19.04
2023-03-19T13:18:59.901Z,18.88
2023-03-19T13:21:32.246Z,18.80
2023-03-19T13:24:04.017Z,18.75
2023-03-19T13:26:32.503Z,18.69
2023-03-19T13:29:09.090Z,18.69
2023-03-19T13:31:38.458Z,18.72
2023-03-19T13:34:08.855Z,18.66
2023-03-19T13:36:40.303Z,18.59
2023-03-19T13:39:16.085Z,18.49
2023-03-19T13:41:52.659Z,18.39
2023-03-19T13:44:33.795Z,18.19
2023-03-19T13:47:03.595Z,18.08
2023-03-19T13:49:35.237Z,18.08
2023-03-19T13:52:48.114Z,18.10
2023-03-19T13:55:34.491Z,18.05
2023-03-19T13:58:27.823Z,17.96
2023-03-19T14:01:00.637Z,17.91
2023-03-19T14:03:31.836Z,17.92
2023-03-19T14:06:00.551Z,17.91
2023-03-19T14:08:33.717Z,17.84
2023-03-19T14:11:03.615Z,17.74
2023-03-19T14:13:35.650Z,17.65
2023-03-19T14:16:09.057Z,17.56
2023-03-19T14:18:41.966Z,17.51
2023-03-19T14:21:13.103Z,17.50
2023-03-19T14:23:46.750Z,17.49
2023-03-19T14:26:19.196Z,17.36
2023-03-19T14:28:54.678Z,17.26
2023-03-19T14:31:34.591Z,17.24
2023-03-19T14:34:07.151Z,17.21
2023-03-19T14:36:38.169Z,17.15
2023-03-19T14:39:17.044Z,17.12
2023-03-19T14:41:47.363Z,17.11
2023-03-19T14:44:40.310Z,17.10
2023-03-19T14:47:42.036Z,17.01
2023-03-19T14:50:40.381Z,16.94
2023-03-19T14:53:15.390Z,16.87
2023-03-19T14:55:49.978Z,16.79
2023-03-19T14:58:18.240Z,16.73
2023-03-19T15:00:48.098Z,16.68
2023-03-19T15:03:23.258Z,16.67
2023-03-19T15:05:52.526Z,16.68
2023-03-19T15:08:24.120Z,16.65
2023-03-19T15:11:12.683Z,16.61
2023-03-19T15:13:52.882Z,16.53
2023-03-19T15:16:32.830Z,16.37
2023-03-19T15:19:00.930Z,16.26
2023-03-19T15:21:30.479Z,16.23
2023-03-19T15:23:58.854Z,16.24
2023-03-19T15:26:35.824Z,16.25
2023-03-19T15:29:04.546Z,16.26
2023-03-19T15:32:02.303Z,16.20
2023-03-19T15:34:32.075Z,16.05
2023-03-19T15:37:04.435Z,15.98
2023-03-19T15:39:36.485Z,15.85
2023-03-19T15:42:06.253Z,15.75
2023-03-19T15:44:38.321Z,15.68
2023-03-19T15:47:08.936Z,15.64
2023-03-19T15:49:40.733Z,15.58
2023-03-19T15:52:14.068Z,15.54
2023-03-19T15:54:42.399Z,15.44
2023-03-19T15:57:14.522Z,15.34
2023-03-19T15:59:43.050Z,15.29
2023-03-19T16:02:18.882Z,15.22
2023-03-19T16:05:14.184Z,15.15
2023-03-19T16:07:42.757Z,15.13
2023-03-19T16:10:36.953Z,15.06
2023-03-19T16:13:23.175Z,14.96
2023-03-19T16:15:56.837Z,14.88
2023-03-19T16:18:26.543Z,14.86
2023-03-19T16:21:04.118Z,14.84
2023-03-19T16:23:34.590Z,14.81
2023-03-19T16:26:21.596Z,14.74
2023-03-19T16:28:59.146Z,14.65
2023-03-19T16:31:29.834Z,14.65
2023-03-19T16:33:57.423Z,14.66
2023-03-19T16:36:29.560Z,14.67
2023-03-19T16:39:15.699Z,14.67
2023-03-19T16:41:43.274Z,14.61
2023-03-19T16:44:18.226Z,14.63
2023-03-19T16:46:46.134Z,14.64
2023-03-19T16:49:13.691Z,14.60
2023-03-19T16:51:41.367Z,14.49
2023-03-19T16:54:11.424Z,14.42
2023-03-19T16:56:38.974Z,14.38
2023-03-19T17:26:15.859Z,13.90
2023-03-19T17:28:43.410Z,13.80
2023-03-19T17:31:25.366Z,13.74
2023-03-19T17:33:54.833Z,13.68
2023-03-19T17:36:22.364Z,13.62
2023-03-19T17:38:49.851Z,13.55
2023-03-19T17:41:20.993Z,13.49
2023-03-19T17:43:49.107Z,13.38
2023-03-19T17:46:19.893Z,13.25
2023-03-19T17:48:48.495Z,13.12
2023-03-19T17:51:17.058Z,13.01
2023-03-19T17:53:49.930Z,12.87
2023-03-19T17:56:21.004Z,12.74
2023-03-19T17:58:50.357Z,12.65
2023-03-19T18:01:20.902Z,12.56
2023-03-19T18:03:49.973Z,12.47
2023-03-19T18:06:19.625Z,12.42
2023-03-19T18:08:47.343Z,12.39
2023-03-19T18:11:14.956Z,12.33
2023-03-19T18:13:44.285Z,12.27
2023-03-19T18:16:18.725Z,12.22
2023-03-19T18:18:46.866Z,12.18
2023-03-19T18:21:15.448Z,12.12
2023-03-19T18:23:43.835Z,12.11
2023-03-19T18:26:12.062Z,12.13
2023-03-19T18:28:39.974Z,12.15
2023-03-19T18:31:15.140Z,12.15
2023-03-19T18:33:46.163Z,12.16
2023-03-19T18:36:16.320Z,12.11
2023-03-19T18:38:43.875Z,12.06
2023-03-19T18:41:18.374Z,12.02
2023-03-19T18:43:47.014Z,11.99
2023-03-19T18:46:20.937Z,11.97
2023-03-19T18:48:48.495Z,11.95
2023-03-19T18:51:16.114Z,11.98
2023-03-19T18:53:43.778Z,12.02
2023-03-19T18:56:22.443Z,12.03
2023-03-19T18:58:50.389Z,11.94
2023-03-19T19:01:20.115Z,11.89
2023-03-19T19:03:48.657Z,11.91
2023-03-19T19:06:24.802Z,11.90
2023-03-19T19:08:56.039Z,11.85
2023-03-19T19:11:23.683Z,11.80
2023-03-19T19:13:56.147Z,11.71
2023-03-19T19:16:27.550Z,11.66
2023-03-19T19:18:55.287Z,11.58
2023-03-19T19:21:22.836Z,11.54
2023-03-19T19:23:53.594Z,11.45
2023-03-19T19:26:37.163Z,11.31
2023-03-19T19:29:06.440Z,11.15
2023-03-19T19:31:37.340Z,11.01
2023-03-19T19:34:05.335Z,10.92
2023-03-19T19:36:34.084Z,10.86
2023-03-19T19:39:01.921Z,10.87
2023-03-19T19:41:29.929Z,10.91
2023-03-19T19:44:01.776Z,10.88
2023-03-19T19:46:29.797Z,10.83
2023-03-19T19:48:59.007Z,10.81
2023-03-19T19:51:28.856Z,10.75
2023-03-19T19:53:57.973Z,10.71
2023-03-19T19:56:27.491Z,10.68
2023-03-19T19:59:01.074Z,10.65
2023-03-19T20:01:29.193Z,10.60
2023-03-19T20:03:59.021Z,10.56
2023-03-19T20:06:26.940Z,10.59
2023-03-19T20:08:54.904Z,10.59
2023-03-19T20:11:27.425Z,10.61
2023-03-19T20:13:56.635Z,10.65
2023-03-19T20:16:26.827Z,10.66
2023-03-19T20:18:55.601Z,10.60
2023-03-19T20:21:25.071Z,10.53
2023-03-19T20:23:55.741Z,10.44
2023-03-19T20:26:25.254Z,10.34
2023-03-19T20:28:54.593Z,10.27
2023-03-19T20:31:30.057Z,10.21
2023-03-19T20:33:58.957Z,10.23
2023-03-19T20:36:27.964Z,10.30
2023-03-19T20:38:55.786Z,10.34
2023-03-19T20:41:28.838Z,10.40
2023-03-19T20:43:57.673Z,10.35
2023-03-19T20:46:25.870Z,10.24
2023-03-19T20:48:53.761Z,10.15
2023-03-19T20:51:31.633Z,10.11
2023-03-19T20:54:07.994Z,10.06
2023-03-19T20:56:38.861Z,10.02
2023-03-19T20:59:06.788Z,10.02
2023-03-19T21:01:34.817Z,10.02
2023-03-19T21:04:02.447Z,10.03
2023-03-19T21:06:51.771Z,10.03
2023-03-19T21:09:21.336Z,10.00
2023-03-19T21:11:49.228Z,10.05
2023-03-19T21:14:17.153Z,10.12
2023-03-19T21:16:44.805Z,10.20
2023-03-19T21:19:12.630Z,10.23
2023-03-19T21:21:42.911Z,10.23
2023-03-19T21:24:14.673Z,10.23
2023-03-19T21:26:43.648Z,10.27
2023-03-19T21:29:16.607Z,10.24
2023-03-19T21:31:44.395Z,10.24
2023-03-19T21:34:14.793Z,10.33
2023-03-19T21:36:43.808Z,10.30
2023-03-19T21:39:11.664Z,10.27
2023-03-19T21:41:39.353Z,10.27
2023-03-19T21:44:12.563Z,10.27
2023-03-19T21:46:40.272Z,10.21
2023-03-19T21:49:11.938Z,10.18
2023-03-19T21:51:39.656Z,10.15
2023-03-19T21:54:08.668Z,10.08
2023-03-19T21:56:39.445Z,10.04
2023-03-19T21:59:14.403Z,10.00
2023-03-19T22:01:42.437Z,9.97
2023-03-19T22:04:10.504Z,9.94
2023-03-19T22:06:38.970Z,9.90
2023-03-19T22:09:08.320Z,9.92
2023-03-19T22:11:38.114Z,9.97
2023-03-19T22:14:08.533Z,9.98
2023-03-19T22:16:36.708Z,10.05
2023-03-19T22:19:04.749Z,10.18
2023-03-19T22:21:33.887Z,10.29
2023-03-19T22:24:01.534Z,10.33
2023-03-19T22:26:33.708Z,10.30
2023-03-19T22:29:03.978Z,10.35
2023-03-19T22:31:32.014Z,10.36
2023-03-19T22:33:59.723Z,10.34
2023-03-19T22:36:27.351Z,10.32
2023-03-19T22:38:54.934Z,10.37
2023-03-19T22:41:27.930Z,10.40
2023-03-19T22:43:58.469Z,10.43
2023-03-19T22:46:27.716Z,10.44
2023-03-19T22:48:55.635Z,10.42
2023-03-19T22:51:26.312Z,10.39
2023-03-19T22:53:54.894Z,10.38
2023-03-19T22:56:23.268Z,10.41
2023-03-19T22:58:50.901Z,10.40
2023-03-19T23:01:37.439Z,10.39
2023-03-19T23:04:23.023Z,10.41
2023-03-19T23:06:51.789Z,10.43
2023-03-19T23:09:21.612Z,10.38
2023-03-19T23:11:49.435Z,10.36
2023-03-19T23:14:28.433Z,10.35
2023-03-19T23:17:00.778Z,10.35
2023-03-19T23:19:30.634Z,10.36
2023-03-19T23:21:59.542Z,10.41
2023-03-19T23:24:28.102Z,10.47
2023-03-19T23:26:57.824Z,10.54
2023-03-19T23:29:29.833Z,10.58
2023-03-19T23:31:59.502Z,10.54
2023-03-19T23:34:28.466Z,10.55
2023-03-19T23:36:56.750Z,10.54
2023-03-19T23:39:25.593Z,10.51
